Terminal Aerodrome Forecast
Issued by NWS Jackson, MS

Home | Current Version | Previous Version | Text Only | Print | Product List | Glossary On
Versions: 1 2 3 4 5 6 7 8 9 10 11 12 13 14
000
FTUS44 KJAN 261135
TAFJAN
TAF
KJAN 261135Z 2612/2712 00000KT 5SM BR SCT060
     FM261400 33003KT P6SM SCT060
     FM261500 35006KT P6SM SCT060
     FM270600 36005KT 6SM HZ OVC250
     FM270900 01004KT P6SM OVC100=

USA.gov is the U.S. government's official web portal to all federal, state and local government web resources and services.